Terminal Aerodrome Forecast
Issued by NWS

Home | Current Version | Previous Version | Text Only | Print | Product List | Glossary Off
Versions: 1 2 3 4 5 6 7 8 9 10 11 12 13 14 15 16

378
FTUS43 KOAX 272320
TAFCDR
TAF
KCDR 272320Z 2800/2824 33008KT P6SM BKN070
     FM280300 35005KT P6SM BKN015
      TEMPO 2806/2810 3SM BR
     FM281500 28013G24KT P6SM BKN080=

USA.gov is the U.S. government's official web portal to all federal, state and local government web resources and services.